Terminal Aerodrome Forecast
Issued by NWS

Current Version | Previous Version | Text Only | Print | Product List | Glossary On
Versions: 1 2 3 4 5 6 7 8 9 10 11 12 13 14 15 16 17 18 19 20 21 22
328
FTUS46 KMTR 301120
TAFSNS
TAF
KSNS 301120Z 3012/3112 28005KT 6SM BR OVC005
     FM301600 12006KT P6SM OVC010
     FM301800 VRB03KT P6SM SCT015
     FM302000 29010KT P6SM SKC
     FM310300 29005KT P6SM BKN010
     FM310600 30003KT P6SM OVC006=

USA.gov is the U.S. government's official web portal to all federal, state and local government web resources and services.